createdAt,value
2023-03-24T00:00:17.880Z,99551.16
2023-03-24T00:02:46.681Z,99556.19
2023-03-24T00:05:17.971Z,99555.31
2023-03-24T00:10:22.563Z,99552.13
2023-03-24T00:12:52.661Z,99546.44
2023-03-24T00:15:24.017Z,99537.97
2023-03-24T00:17:53.286Z,99522.56
2023-03-24T00:20:24.783Z,99517.78
2023-03-24T00:22:59.226Z,99507.09
2023-03-24T00:25:33.834Z,99518.69
2023-03-24T00:28:03.024Z,99503.06
2023-03-24T00:30:31.603Z,99507.00
2023-03-24T00:33:02.262Z,99496.47
2023-03-24T00:35:30.688Z,99495.47
2023-03-24T00:38:00.851Z,99489.91
2023-03-24T00:40:29.392Z,99477.06
2023-03-24T00:42:59.167Z,99478.25
2023-03-24T00:45:29.368Z,99474.47
2023-03-24T00:47:58.176Z,99469.06
2023-03-24T00:50:27.756Z,99469.06
2023-03-24T00:52:58.554Z,99463.50
2023-03-24T00:55:28.990Z,99457.47
2023-03-24T00:57:57.993Z,99446.94
2023-03-24T01:00:28.281Z,99447.25
2023-03-24T01:03:00.324Z,99440.06
2023-03-24T01:05:31.174Z,99425.75
2023-03-24T01:08:03.480Z,99424.00
2023-03-24T01:10:42.977Z,99421.94
2023-03-24T01:13:12.609Z,99416.38
2023-03-24T01:15:40.896Z,99426.75
2023-03-24T01:18:09.785Z,99422.78
2023-03-24T01:20:38.322Z,99421.47
2023-03-24T01:23:07.271Z,99423.53
2023-03-24T01:25:38.179Z,99432.97
2023-03-24T01:28:07.093Z,99429.00
2023-03-24T01:30:38.220Z,99426.97
2023-03-24T01:33:09.505Z,99424.31
2023-03-24T01:35:40.936Z,99420.66
2023-03-24T01:38:11.643Z,99416.72
2023-03-24T01:40:48.364Z,99413.94
2023-03-24T01:43:21.326Z,99405.84
2023-03-24T01:46:04.215Z,99410.88
2023-03-24T01:48:37.973Z,99399.47
2023-03-24T01:51:12.202Z,99407.97
2023-03-24T01:53:44.890Z,99404.13
2023-03-24T01:56:15.424Z,99395.78
2023-03-24T01:58:49.511Z,99404.38
2023-03-24T02:01:31.842Z,99405.25
2023-03-24T02:04:34.576Z,99393.94
2023-03-24T02:07:17.553Z,99393.78
2023-03-24T02:09:46.456Z,99388.88
2023-03-24T02:12:16.325Z,99375.81
2023-03-24T02:14:45.534Z,99362.06
2023-03-24T02:17:33.526Z,99373.72
2023-03-24T02:20:29.863Z,99357.22
2023-03-24T02:23:26.690Z,99354.84
2023-03-24T02:26:31.895Z,99348.38
2023-03-24T02:29:18.039Z,99348.50
2023-03-24T02:32:10.932Z,99348.13
2023-03-24T02:35:05.113Z,99342.16
2023-03-24T02:38:27.758Z,99345.78
2023-03-24T02:41:03.816Z,99335.78
2023-03-24T02:43:43.583Z,99330.09
2023-03-24T02:46:28.251Z,99332.75
2023-03-24T02:49:11.778Z,99325.00
2023-03-24T02:51:51.674Z,99321.41
2023-03-24T02:54:31.549Z,99327.38
2023-03-24T02:57:05.681Z,99340.66
2023-03-24T03:00:30.751Z,99345.03
2023-03-24T03:03:16.500Z,99349.53
2023-03-24T03:05:53.669Z,99352.09
2023-03-24T03:08:26.260Z,99362.63
2023-03-24T03:10:58.383Z,99345.81
2023-03-24T03:13:33.423Z,99353.19
2023-03-24T03:16:07.819Z,99347.63
2023-03-24T03:18:41.690Z,99340.78
2023-03-24T03:21:14.180Z,99349.69
2023-03-24T03:23:50.920Z,99348.22
2023-03-24T03:26:24.155Z,99349.94
2023-03-24T03:29:00.167Z,99345.00
2023-03-24T03:31:37.041Z,99344.16
2023-03-24T03:34:16.285Z,99342.03
2023-03-24T03:36:52.179Z,99343.25
2023-03-24T03:39:25.212Z,99334.44
2023-03-24T03:41:53.788Z,99339.63
2023-03-24T03:44:23.630Z,99351.63
2023-03-24T03:46:52.220Z,99351.63
2023-03-24T03:49:29.370Z,99349.81
2023-03-24T03:51:59.396Z,99345.34
2023-03-24T03:54:31.191Z,99349.69
2023-03-24T03:57:00.486Z,99348.00
2023-03-24T03:59:36.846Z,99344.38
2023-03-24T04:02:27.106Z,99350.66
2023-03-24T04:05:14.280Z,99358.19
2023-03-24T04:08:20.020Z,99370.75
2023-03-24T04:11:11.766Z,99373.00
2023-03-24T04:14:12.656Z,99378.69
2023-03-24T04:17:01.690Z,99389.53
2023-03-24T04:19:49.337Z,99395.59
2023-03-24T04:22:26.556Z,99394.38
2023-03-24T04:25:17.534Z,99403.59
2023-03-24T04:27:57.002Z,99390.84
2023-03-24T04:30:33.002Z,99409.19
2023-03-24T04:33:08.766Z,99417.19
2023-03-24T04:35:44.393Z,99422.78
2023-03-24T04:38:26.136Z,99413.91
2023-03-24T04:41:25.767Z,99412.00
2023-03-24T04:44:06.048Z,99413.03
2023-03-24T04:46:44.781Z,99402.66
2023-03-24T04:49:20.402Z,99421.72
2023-03-24T04:51:49.759Z,99414.44
2023-03-24T04:54:22.104Z,99406.69
2023-03-24T04:56:55.682Z,99410.50
2023-03-24T04:59:28.731Z,99419.72
2023-03-24T05:01:57.990Z,99419.00
2023-03-24T05:04:30.856Z,99408.94
2023-03-24T05:07:09.804Z,99407.13
2023-03-24T05:09:38.259Z,99391.75
2023-03-24T05:12:08.205Z,99403.03
2023-03-24T05:14:55.652Z,99403.63
2023-03-24T05:17:26.965Z,99395.50
2023-03-24T05:20:16.829Z,99400.13
2023-03-24T05:22:49.934Z,99387.94
2023-03-24T05:25:18.601Z,99377.72
2023-03-24T05:27:48.402Z,99376.00
2023-03-24T05:30:23.491Z,99372.13
2023-03-24T05:32:59.229Z,99378.13
2023-03-24T05:35:29.182Z,99374.59
2023-03-24T05:37:58.058Z,99375.94
2023-03-24T05:40:26.765Z,99376.53
2023-03-24T05:43:17.711Z,99386.00
2023-03-24T05:45:57.646Z,99394.81
2023-03-24T05:48:32.190Z,99395.06
2023-03-24T05:51:13.931Z,99399.44
2023-03-24T05:53:43.740Z,99397.00
2023-03-24T05:56:16.018Z,99397.41
2023-03-24T05:58:59.477Z,99398.69
2023-03-24T06:01:50.477Z,99393.97
2023-03-24T06:04:31.638Z,99409.91
2023-03-24T06:07:08.932Z,99422.16
2023-03-24T06:09:42.293Z,99417.31
2023-03-24T06:12:12.986Z,99424.47
2023-03-24T06:14:52.478Z,99426.41
2023-03-24T06:17:21.428Z,99439.84
2023-03-24T06:19:54.837Z,99437.50
2023-03-24T06:22:44.161Z,99430.09
2023-03-24T06:25:18.034Z,99429.63
2023-03-24T06:27:55.896Z,99431.78
2023-03-24T06:30:26.308Z,99430.66
2023-03-24T06:32:56.211Z,99430.38
2023-03-24T06:35:24.986Z,99419.13
2023-03-24T06:38:02.093Z,99428.66
2023-03-24T06:40:30.701Z,99428.41
2023-03-24T06:43:00.363Z,99436.16
2023-03-24T06:45:31.241Z,99435.81
2023-03-24T06:48:00.248Z,99434.28
2023-03-24T06:50:33.723Z,99442.50
2023-03-24T06:53:08.132Z,99440.59
2023-03-24T06:55:38.591Z,99460.19
2023-03-24T06:58:07.285Z,99456.56
2023-03-24T07:01:02.316Z,99456.81
2023-03-24T07:03:35.140Z,99462.19
2023-03-24T07:06:19.346Z,99459.13
2023-03-24T07:08:54.759Z,99459.72
2023-03-24T07:11:25.603Z,99466.34
2023-03-24T07:13:57.879Z,99473.63
2023-03-24T07:16:27.031Z,99471.25
2023-03-24T07:19:04.115Z,99470.19
2023-03-24T07:21:37.476Z,99477.09
2023-03-24T07:24:08.639Z,99483.47
2023-03-24T07:26:48.534Z,99477.25
2023-03-24T07:29:23.235Z,99475.63
2023-03-24T07:32:25.188Z,99479.41
2023-03-24T07:34:53.884Z,99469.69
2023-03-24T07:37:22.875Z,99468.50
2023-03-24T07:39:52.845Z,99467.09
2023-03-24T07:42:21.215Z,99471.91
2023-03-24T07:45:09.917Z,99470.25
2023-03-24T07:47:38.864Z,99470.13
2023-03-24T07:50:10.483Z,99472.78
2023-03-24T07:52:40.149Z,99466.41
2023-03-24T07:55:13.126Z,99465.06
2023-03-24T07:57:53.190Z,99468.06
2023-03-24T08:00:24.990Z,99473.91
2023-03-24T08:03:25.584Z,99470.63
2023-03-24T08:06:12.687Z,99473.63
2023-03-24T08:08:44.793Z,99458.28
2023-03-24T08:11:14.755Z,99460.47
2023-03-24T08:13:43.001Z,99453.91
2023-03-24T08:16:11.573Z,99462.97
2023-03-24T08:18:40.183Z,99470.13
2023-03-24T08:21:08.660Z,99471.97
2023-03-24T08:23:37.328Z,99479.09
2023-03-24T08:26:07.152Z,99469.19
2023-03-24T08:28:36.971Z,99469.41
2023-03-24T08:31:06.664Z,99481.59
2023-03-24T08:33:35.214Z,99484.97
2023-03-24T08:36:04.240Z,99478.69
2023-03-24T08:38:32.561Z,99477.81
2023-03-24T08:41:06.574Z,99488.03
2023-03-24T08:43:37.945Z,99477.25
2023-03-24T08:46:11.805Z,99467.56
2023-03-24T08:48:43.181Z,99471.13
2023-03-24T08:51:13.640Z,99479.75
2023-03-24T08:53:41.975Z,99486.38
2023-03-24T08:56:11.074Z,99476.22
2023-03-24T08:58:40.950Z,99477.69
2023-03-24T09:01:10.447Z,99474.38
2023-03-24T09:03:39.556Z,99476.03
2023-03-24T09:06:08.651Z,99471.75
2023-03-24T09:08:36.876Z,99479.66
2023-03-24T09:11:05.348Z,99473.09
2023-03-24T09:13:33.747Z,99478.59
2023-03-24T10:57:20.181Z,99598.06
2023-03-24T10:59:56.040Z,99608.16
2023-03-24T11:02:28.353Z,99609.19
2023-03-24T11:04:59.618Z,99615.47
2023-03-24T11:07:33.085Z,99628.03
2023-03-24T11:10:06.489Z,99641.97
2023-03-24T11:12:38.852Z,99635.38
2023-03-24T11:15:30.004Z,99643.72
2023-03-24T11:18:01.477Z,99641.22
2023-03-24T11:20:33.689Z,99631.19
2023-03-24T11:23:04.465Z,99631.75
2023-03-24T11:25:36.881Z,99625.25
2023-03-24T11:28:09.951Z,99621.31
2023-03-24T11:30:47.940Z,99620.13
2023-03-24T11:33:35.615Z,99627.06
2023-03-24T11:36:26.257Z,99621.53
2023-03-24T11:39:01.152Z,99617.75
2023-03-24T11:41:29.464Z,99603.72
2023-03-24T11:44:16.939Z,99601.66
2023-03-24T11:46:51.136Z,99615.69
2023-03-24T11:49:22.896Z,99621.06
2023-03-24T11:51:55.066Z,99627.16
2023-03-24T11:54:29.581Z,99614.97
2023-03-24T11:57:04.592Z,99614.28
2023-03-24T11:59:42.102Z,99616.59
2023-03-24T12:02:24.011Z,99619.91
2023-03-24T12:05:04.821Z,99628.19
2023-03-24T12:08:01.010Z,99628.28
2023-03-24T12:10:40.577Z,99630.47
2023-03-24T12:13:22.165Z,99631.13
2023-03-24T12:16:01.830Z,99613.47
2023-03-24T12:18:55.834Z,99622.41
2023-03-24T12:21:38.363Z,99625.16
2023-03-24T12:24:21.997Z,99628.72
2023-03-24T12:26:58.155Z,99626.38
2023-03-24T12:29:39.342Z,99623.88
2023-03-24T12:32:33.256Z,99630.41
2023-03-24T12:35:26.433Z,99618.13
2023-03-24T12:38:08.150Z,99622.34
2023-03-24T12:41:12.825Z,99615.22
2023-03-24T12:43:51.282Z,99609.38
2023-03-24T12:46:46.756Z,99607.22
2023-03-24T12:49:36.061Z,99596.53
2023-03-24T12:52:21.836Z,99606.09
2023-03-24T12:55:04.973Z,99606.41
2023-03-24T12:57:37.728Z,99609.06
2023-03-24T13:00:12.583Z,99609.81
2023-03-24T13:02:47.214Z,99623.19
2023-03-24T13:05:21.714Z,99629.25
2023-03-24T13:07:54.705Z,99620.00
2023-03-24T13:10:26.845Z,99619.28
2023-03-24T13:13:00.734Z,99606.03
2023-03-24T13:15:35.718Z,99597.59
2023-03-24T13:18:20.712Z,99597.41
2023-03-24T13:20:56.177Z,99602.38
2023-03-24T13:23:43.053Z,99594.22
2023-03-24T13:26:22.253Z,99591.91
2023-03-24T13:29:05.612Z,99582.97
2023-03-24T13:31:40.074Z,99602.88
2023-03-24T13:34:23.900Z,99594.50
2023-03-24T13:36:58.320Z,99602.78
2023-03-24T13:39:28.119Z,99598.09
2023-03-24T13:42:00.570Z,99604.38
2023-03-24T13:44:35.227Z,99595.75
2023-03-24T13:47:09.846Z,99597.31
2023-03-24T13:49:38.202Z,99589.44
2023-03-24T13:52:26.064Z,99596.31
2023-03-24T13:54:57.841Z,99596.69
2023-03-24T13:57:27.920Z,99595.94
2023-03-24T14:00:11.767Z,99591.81
2023-03-24T14:02:51.169Z,99591.72
2023-03-24T14:05:42.546Z,99595.88
2023-03-24T14:08:18.330Z,99585.28
2023-03-24T14:10:50.459Z,99577.19
2023-03-24T14:13:37.002Z,99582.94
2023-03-24T14:16:46.494Z,99570.13
2023-03-24T14:19:26.712Z,99575.78
2023-03-24T14:22:04.575Z,99580.91
2023-03-24T14:24:34.531Z,99575.56
2023-03-24T14:27:22.749Z,99571.13
2023-03-24T14:29:52.411Z,99574.66
2023-03-24T14:32:23.684Z,99582.84
2023-03-24T14:34:58.250Z,99580.84
2023-03-24T14:37:28.288Z,99580.75
2023-03-24T14:39:59.484Z,99572.22
2023-03-24T14:42:49.765Z,99575.22
2023-03-24T14:45:42.193Z,99579.00
2023-03-24T14:48:26.629Z,99583.41
2023-03-24T14:51:01.938Z,99572.22
2023-03-24T14:53:30.758Z,99575.31
2023-03-24T14:56:00.846Z,99566.81
2023-03-24T14:58:36.174Z,99567.31
2023-03-24T15:01:08.302Z,99572.69
2023-03-24T15:03:45.903Z,99560.28
2023-03-24T15:06:17.377Z,99562.38
2023-03-24T15:08:50.726Z,99563.13
2023-03-24T15:11:25.933Z,99552.50
2023-03-24T15:13:57.338Z,99545.38
2023-03-24T15:16:27.921Z,99544.81
2023-03-24T15:19:02.459Z,99535.88
2023-03-24T15:21:35.283Z,99546.69
2023-03-24T15:24:25.411Z,99549.59
2023-03-24T15:26:57.117Z,99544.91
2023-03-24T15:29:26.202Z,99539.16
2023-03-24T15:31:56.186Z,99534.84
2023-03-24T15:34:27.941Z,99537.91
2023-03-24T15:36:57.877Z,99538.13
2023-03-24T15:39:28.393Z,99536.03
2023-03-24T15:41:58.226Z,99533.22
2023-03-24T15:44:28.756Z,99527.88
2023-03-24T15:46:59.448Z,99526.91
2023-03-24T15:49:31.716Z,99524.59
2023-03-24T15:52:02.856Z,99525.53
2023-03-24T15:54:33.660Z,99519.44
2023-03-24T15:57:16.510Z,99519.00
2023-03-24T15:59:47.979Z,99521.81
2023-03-24T16:02:29.915Z,99517.75
2023-03-24T16:05:10.726Z,99512.06
2023-03-24T16:07:42.407Z,99511.25
2023-03-24T16:10:29.065Z,99520.25
2023-03-24T16:13:05.704Z,99512.25
2023-03-24T16:15:35.646Z,99516.53
2023-03-24T16:18:06.461Z,99522.44
2023-03-24T16:20:36.354Z,99525.66
2023-03-24T16:23:04.800Z,99529.91
2023-03-24T16:25:33.198Z,99534.25
2023-03-24T16:28:02.728Z,99530.63
2023-03-24T16:30:39.148Z,99526.97
2023-03-24T16:33:08.220Z,99531.13
2023-03-24T16:35:36.991Z,99537.41
2023-03-24T16:38:05.881Z,99531.34
2023-03-24T16:40:40.403Z,99532.38
2023-03-24T16:43:10.078Z,99529.81
2023-03-24T16:45:38.385Z,99533.75
2023-03-24T16:48:06.936Z,99538.78
2023-03-24T16:50:38.369Z,99539.69
2023-03-24T16:53:08.720Z,99543.06
2023-03-24T16:55:38.259Z,99535.72
2023-03-24T16:58:07.326Z,99541.56
2023-03-24T17:00:38.319Z,99538.66
2023-03-24T17:03:08.047Z,99542.13
2023-03-24T17:05:42.329Z,99546.75
2023-03-24T17:08:11.131Z,99544.09
2023-03-24T17:10:40.175Z,99544.47
2023-03-24T17:13:08.366Z,99544.72
2023-03-24T17:15:38.439Z,99544.94
2023-03-24T17:18:08.382Z,99545.31
2023-03-24T17:20:39.809Z,99548.59
2023-03-24T17:23:09.109Z,99552.59
2023-03-24T17:25:37.641Z,99546.66
2023-03-24T17:28:12.278Z,99555.28
2023-03-24T17:30:42.028Z,99563.78
2023-03-24T17:33:14.059Z,99561.00
2023-03-24T17:35:45.068Z,99557.22
2023-03-24T17:38:14.566Z,99567.41
2023-03-24T17:40:43.224Z,99562.94
2023-03-24T17:43:11.609Z,99573.59
2023-03-24T17:45:42.483Z,99579.56
2023-03-24T17:48:11.129Z,99582.91
2023-03-24T17:50:39.361Z,99594.09
2023-03-24T17:53:07.837Z,99591.41
2023-03-24T17:55:36.303Z,99598.72
2023-03-24T17:58:05.256Z,99601.84
2023-03-24T18:00:33.502Z,99608.50
2023-03-24T18:03:03.109Z,99607.91
2023-03-24T18:05:31.416Z,99615.66
2023-03-24T18:07:59.939Z,99608.84
2023-03-24T18:10:28.396Z,99617.81
2023-03-24T18:12:56.691Z,99621.94
2023-03-24T18:15:26.046Z,99620.38
2023-03-24T18:17:55.109Z,99620.47
2023-03-24T18:20:25.235Z,99620.63
2023-03-24T18:22:54.248Z,99611.50
2023-03-24T18:25:22.747Z,99623.72
2023-03-24T18:27:51.570Z,99614.69
2023-03-24T18:30:22.179Z,99615.81
2023-03-24T18:32:50.690Z,99616.47
2023-03-24T18:35:19.171Z,99617.19
2023-03-24T18:37:48.837Z,99620.38
2023-03-24T18:40:17.556Z,99622.63
2023-03-24T18:42:45.766Z,99627.38
2023-03-24T18:45:17.799Z,99628.19
2023-03-24T18:47:47.612Z,99634.69
2023-03-24T18:50:16.388Z,99630.78
2023-03-24T18:52:44.916Z,99630.88
2023-03-24T18:55:15.792Z,99632.81
2023-03-24T18:57:44.041Z,99631.25
2023-03-24T19:00:14.646Z,99631.97
2023-03-24T19:02:43.556Z,99639.75
2023-03-24T19:05:14.281Z,99640.94
2023-03-24T19:07:42.564Z,99635.84
2023-03-24T19:10:11.299Z,99640.66
2023-03-24T19:12:41.782Z,99644.44
2023-03-24T19:15:10.713Z,99647.69
2023-03-24T19:17:38.951Z,99652.06
2023-03-24T19:20:11.009Z,99651.19
2023-03-24T19:22:41.555Z,99643.31
2023-03-24T19:25:10.020Z,99651.03
2023-03-24T19:27:38.333Z,99646.47
2023-03-24T19:30:09.835Z,99643.84
2023-03-24T19:32:38.661Z,99647.75
2023-03-24T19:35:08.312Z,99662.41
2023-03-24T19:37:37.728Z,99672.91
2023-03-24T19:40:08.575Z,99673.59
2023-03-24T19:42:39.887Z,99692.78
2023-03-24T19:45:12.169Z,99719.00
2023-03-24T19:47:40.856Z,99711.06
2023-03-24T19:50:09.665Z,99707.84
2023-03-24T19:52:38.068Z,99690.94
2023-03-24T19:55:07.293Z,99693.88
2023-03-24T19:57:35.663Z,99681.19
2023-03-24T20:00:06.086Z,99687.75
2023-03-24T20:02:35.982Z,99686.16
2023-03-24T20:05:06.992Z,99687.16
2023-03-24T20:07:35.435Z,99689.69
2023-03-24T20:10:05.084Z,99706.34
2023-03-24T20:12:33.424Z,99690.25
2023-03-24T20:15:02.199Z,99675.63
2023-03-24T20:17:37.092Z,99682.50
2023-03-24T20:20:10.365Z,99678.06
2023-03-24T20:22:41.952Z,99671.50
2023-03-24T20:25:11.327Z,99674.75
2023-03-24T20:27:40.141Z,99656.19
2023-03-24T20:30:10.198Z,99663.47
2023-03-24T20:32:38.639Z,99660.38
2023-03-24T20:35:11.014Z,99665.03
2023-03-24T20:37:39.324Z,99664.16
2023-03-24T20:40:10.367Z,99644.25
2023-03-24T20:42:39.843Z,99650.47
2023-03-24T20:45:09.918Z,99670.00
2023-03-24T20:47:38.814Z,99671.00
2023-03-24T20:50:12.934Z,99675.25
2023-03-24T20:52:41.316Z,99684.88
2023-03-24T20:55:16.466Z,99690.72
2023-03-24T20:57:51.294Z,99723.78
2023-03-24T21:00:28.145Z,99707.50
2023-03-24T21:03:01.377Z,99721.38
2023-03-24T21:05:49.965Z,99730.84
2023-03-24T21:08:19.048Z,99738.78
2023-03-24T21:10:57.198Z,99730.59
2023-03-24T21:13:37.389Z,99734.72
2023-03-24T21:16:10.928Z,99758.25
2023-03-24T21:18:44.905Z,99744.06
2023-03-24T21:21:26.996Z,99739.66
2023-03-24T21:23:58.092Z,99744.59
2023-03-24T21:26:27.989Z,99719.41
2023-03-24T21:29:02.640Z,99703.28
2023-03-24T21:31:31.081Z,99697.81
2023-03-24T21:33:59.652Z,99694.28
2023-03-24T21:36:43.717Z,99695.03
2023-03-24T21:39:14.701Z,99697.88
2023-03-24T21:41:43.227Z,99704.53
2023-03-24T21:44:15.105Z,99712.22
2023-03-24T21:46:45.049Z,99717.34
2023-03-24T21:49:22.887Z,99717.59
2023-03-24T21:51:56.725Z,99723.78
2023-03-24T21:54:26.658Z,99723.25
2023-03-24T21:56:54.937Z,99716.72
2023-03-24T21:59:23.197Z,99723.00
2023-03-24T22:01:52.298Z,99741.16
2023-03-24T22:04:20.805Z,99748.97
2023-03-24T22:06:48.899Z,99756.31
2023-03-24T22:09:19.281Z,99743.88
2023-03-24T22:11:47.425Z,99742.59
2023-03-24T22:14:16.599Z,99742.59
2023-03-24T22:16:45.189Z,99753.69
2023-03-24T22:19:14.944Z,99742.91
2023-03-24T22:21:43.123Z,99733.19
2023-03-24T22:24:11.305Z,99740.88
2023-03-24T22:26:40.783Z,99730.91
2023-03-24T22:29:09.658Z,99734.28
2023-03-24T22:31:41.990Z,99735.88
2023-03-24T22:34:11.418Z,99727.56
2023-03-24T22:36:39.724Z,99724.97
2023-03-24T22:39:08.134Z,99727.72
2023-03-24T22:41:36.704Z,99726.84
2023-03-24T22:44:07.232Z,99739.81
2023-03-24T22:46:35.593Z,99736.84
2023-03-24T22:49:04.487Z,99734.50
2023-03-24T22:51:32.895Z,99749.34
2023-03-24T22:54:01.682Z,99744.69
2023-03-24T22:56:30.026Z,99750.56
2023-03-24T22:58:58.462Z,99741.78
2023-03-24T23:01:28.224Z,99746.66
2023-03-24T23:03:56.633Z,99740.16
2023-03-24T23:06:25.804Z,99732.53
2023-03-24T23:08:54.117Z,99737.72
2023-03-24T23:11:24.143Z,99729.59
2023-03-24T23:13:52.510Z,99728.53
2023-03-24T23:16:21.839Z,99730.41
2023-03-24T23:18:51.681Z,99727.78
2023-03-24T23:21:19.974Z,99735.22
2023-03-24T23:23:48.284Z,99724.34
2023-03-24T23:26:25.461Z,99722.75
2023-03-24T23:28:55.569Z,99728.94
2023-03-24T23:31:26.193Z,99732.38
2023-03-24T23:33:57.911Z,99736.59
2023-03-24T23:36:28.376Z,99740.94
2023-03-24T23:38:57.122Z,99744.91
2023-03-24T23:41:26.820Z,99744.50
2023-03-24T23:43:55.034Z,99745.31
2023-03-24T23:46:25.282Z,99734.22
2023-03-24T23:48:55.524Z,99739.53
2023-03-24T23:51:24.298Z,99748.41
2023-03-24T23:53:52.456Z,99755.66
2023-03-24T23:56:21.604Z,99754.69
2023-03-24T23:58:50.073Z,99742.38
